Warning: Javascript must be enabled to use all the features on this page!


Page Loading - Please Wait...

* We've detected you're using a mobile device. Find our mobile dedicated web site here.
Click to hideNews Bulletins

Streamflow Measurements for the Nation


USGS 05536995 CHICAGO SANITARY AND SHIP CANAL AT ROMEOVILLE, IL


Will County, Illinois
Hydrologic Unit Code 07120004
Latitude  41°38'27", Longitude  88°03'34" NAD83
Drainage area 739  square miles
Gage datum 551.76 feet above NAVD88
Output formats
HTML table with channel data
HTML table without channel data
Tab-separated data with channel data
Tab-separated data without channel data
Graph of data
Reselect output format
Meas.
Number
  Date       Time Time
Datum
Measurement
Used?
  Who Measuring
Agency
Stream
flow
(ft3/s)
Gage
Height
(ft)
GH
Change
(ft)
Meas.
Duration
(hr)
Meas.
Rated
  Control Flow
Adjust.
Code
 
4402006-04-17 14:25CSTYesKKJ/DJFUSGS357025.76-0.110.10Fair NONE
4392006-04-17 14:22CSTYesKKJ/DJFUSGS309025.820.020.10Fair NONE
4382006-04-17 14:18CSTYesKKJ/DJFUSGS300025.760.060.10Fair NONE
4372006-04-17 14:14CSTYesKKJ/DJFUSGS278025.74-0.010.10Fair NONE
4362006-03-06 16:17CSTYesKKJ/PGDUSGS163025.510.000.10Fair NONE
4352006-03-06 16:14CSTYesKKJ/PGDUSGS155025.500.010.10Fair NONE
4342006-03-06 16:11CSTYesKKJ/PGDUSGS157025.460.080.10Fair NONE
4332006-03-06 16:08CSTYesKKJ/PGDUSGS166025.390.030.10Fair NONE
4322005-10-13 15:13CSTYesKKJ/REBUSGS147025.420.000.10GoodClearNONE
4312005-10-13 15:09CSTYesKKJ/REBUSGS183025.43-0.010.10GoodClearNONE
4302005-10-13 15:05CSTYesKKJ/REBUSGS124025.44-0.010.10GoodClearNONE
4292005-10-13 14:59CSTYesKKJ/REBUSGS74425.410.060.10GoodClearNONE
4282005-05-31 13:02CSTYesKKJ/JMMUSGS153025.49-0.050.10GoodClearNONE
4272005-05-31 12:57CSTYesKKJ/JMMUSGS125025.620.020.10GoodClearNONE
4262005-05-31 12:52CSTYesKKJ/JMMUSGS166025.500.040.10GoodClearNONE
4252005-05-31 12:45CSTYesKKJ/JMMUSGS136025.460.040.10GoodClearNONE
4242005-01-13 13:00CSTYesJJD/TMHUSGS1560021.340.020.10GoodClearNONE
4232005-01-13 12:57CSTYesJJD/TMHUSGS1510021.34-0.010.10GoodClearNONE
4222005-01-13 12:54CSTYesJJD/TMHUSGS1540021.35-0.020.10GoodClearNONE
4212005-01-13 12:52CSTYesJJD/TMHUSGS1510021.350.020.10GoodClearNONE
4202005-01-13 12:46CSTYesJJD/TMHUSGS1570021.290.040.10GoodClearNONE
4192005-01-13 12:44CSTYesJJD/TMHUSGS1510021.260.020.10GoodClearNONE
4182005-01-13 12:41CSTYesJJD/TMHUSGS1580021.28-0.030.10GoodClearNONE
4172005-01-13 12:38CSTYesJJD/TMHUSGS1560021.31-0.020.10GoodClearNONE
4162004-10-14 11:30CSTYesJJD/PCMUSGS243025.46 GoodClearNONE
4152004-10-14 11:27CSTYesJJD/PCMUSGS241025.26 GoodClearNONE
4142004-10-14 11:23CSTYesJJD/PCMUSGS195025.10 GoodClearNONE
4132004-10-14 11:19CSTYesJJD/PCMUSGS345025.02 GoodClearNONE
4122004-10-14 11:17CSTNo
4112004-10-14 11:13CSTYesJJD/PCMUSGS403025.20 GoodClearNONE
4102004-10-14 11:10CSTYesJJD/PCMUSGS320025.25 GoodClearNONE
4092004-10-14 11:06CSTYesjjd/pcmUSGS272025.38 GoodClearNONE
4082004-10-14 10:58CSTNo
4072004-10-14 10:55CSTYesJJD/PCMUSGS171025.50 GoodClearNONE
4062004-08-26 07:44CSTNo
4052004-08-26 07:39CSTYesJJD/KKJUSGS195024.74 GoodClearNONE
4042004-08-26 07:35CSTYesJJD/KKJUSGS153024.74 GoodClearNONE
4032004-08-26 07:30CSTYesJJD/KKJUSGS163024.83 GoodClearNONE
4022004-08-26 07:24CSTYesJJD/KKJUSGS182024.76 GoodClearNONE
4012004-08-26 07:20CSTYesJJD/KKJUSGS143024.74 GoodClearNONE
4002004-08-26 07:17CSTYesJJD/KKJUSGS161024.81 GoodClearNONE
3992004-08-26 07:13CSTYesJJD/KKJUSGS172024.85 GoodClearNONE
3982004-08-26 07:10CSTYesJJD/KKJUSGS206024.75 GoodClearNONE
3932004-07-01 16:14CSTNo
3922004-07-01 16:08CSTNo
3972004-07-01 15:31CSTYesJJD/KKJUSGS210025.12 GoodClearNONE
3962004-07-01 15:27CSTYesJJD/KKJUSGS228025.22 GoodClearNONE
3952004-07-01 15:22CSTYesJJD/KKJUSGS244025.27 GoodClearNONE
3942004-07-01 15:18CSTYesJJD/KKJUSGS198025.30 GoodClearNONE
3912003-12-09 10:06CSTNo
3902003-12-09 10:01CSTYesJJD/KKJUSGS654024.39 GoodClearNONE
3892003-12-09 09:56CSTYesJJD/KKJUSGS634024.44 GoodClearNONE
3882003-12-09 09:52CSTYesJJD/KKJUSGS626024.49 GoodClearNONE
3872003-12-09 09:45CSTYesJJD/KKJUSGS573024.70 GoodClearNONE
3862003-12-09 09:40CSTYesJJD/KKJUSGS486024.79 GoodClearNONE
3852003-12-09 09:35CSTYesJJD/KKJUSGS426024.94 GoodClearNONE
3842003-12-09 09:31CSTYesJJD/KKJUSGS373025.07 GoodClearNONE
3832003-12-09 09:26CSTYesJJD/KKJUSGS334025.10 GoodClearNONE
3782003-09-04 08:32CSTYesJJD/KKJUSGS213024.96 Good NONE
3772003-09-04 08:24CSTYesJJD/KKJUSGS239024.88 Good NONE
3762003-09-04 08:18CSTYesJJD/KKJUSGS241025.09 Good NONE
3752003-09-04 08:11CSTYesJJD/KKJUSGS267025.36 Good NONE
3742003-09-04 08:04CSTYesJJD/KKJUSGS226025.35 Good NONE
3732003-05-27 10:11CSTYesJJD/TLWUSGS107025.75 Good NONE
3722003-05-27 10:05CSTYesJJD/TLWUSGS180025.60 Good NONE
3712003-05-27 09:59CSTYesJJD/TLWUSGS90625.53 Good NONE
3702003-05-27 09:53CSTYesJJD/TLWUSGS72925.49 Good NONE
3692003-05-27 09:25CSTYesJJD/KKJUSGS162025.33 Good NONE
3682003-05-27 09:19CSTYesJJD/TLWUSGS181025.01 Good NONE
3672003-05-27 09:14CSTYesJJD/KKJUSGS339025.27 Good NONE
3662003-05-27 09:08CSTYesJJD/KKJUSGS242025.47 Good NONE
3652003-05-27 09:02CSTYesJJD/TLWUSGS185025.59 Good NONE
3642003-05-27 08:56CSTYesJJD/TLWUSGS120025.64 Good NONE
3622003-05-14 10:45CSTYesJJD/KKJUSGS318025.49 Good NONE
3612003-05-14 10:40CSTYesJJD/KKJUSGS337025.47 Good NONE
3602003-05-14 10:35CSTYesJJD/KKJUSGS353025.52 Good NONE
3592003-05-14 10:29CSTYesJJD/KKJUSGS344025.56 Good NONE
3482002-08-22 11:40CSTNo
3472002-08-22 11:35CSTYesJDD/ADRUSGS1560021.35 Good NONE
3462002-08-22 11:32CSTYesJJD/ADRUSGS1580021.35 Good NONE
3452002-08-22 11:29CSTYesJJD/ADRUSGS1580021.35 Good NONE
3442002-08-22 11:26CSTYesJJD/ADRUSGS1580021.35 Good NONE
3432002-08-22 11:23CSTYesJJD/ADRUSGS1560021.35 Good NONE
3422002-08-22 11:19CSTYesJJD/ADRUSGS1550021.36 Good NONE
3412002-08-22 11:15CSTYesJJD/ADRUSGS1800021.37 Good NONE
3402002-08-22 11:12CSTYesJJD/ADRUSGS1590021.38 Good NONE
3392002-02-14 09:05CSTNo
3382002-02-14 09:00CSTYesJJD/AMWUSGS189025.62 Good NONE
3372002-02-14 08:55CSTYesJJD/AMWUSGS140025.62 Good NONE
3362002-02-14 08:50CSTYesJJD/AMWUSGS163025.65 Good NONE
3352002-02-14 08:45CSTYesJJD/AMWUSGS192025.68 Good NONE
3342002-02-14 08:30CSTYesJJD/AMWUSGS190025.65 Good NONE
3332002-02-14 08:25CSTYesJJD/AMWUSGS151025.65 Good NONE
3322002-02-14 08:20CSTYesJJD/AMWUSGS147025.68 Good NONE
3312002-02-14 08:15CSTYesJJD/AMWUSGS148025.72 Good NONE
3292001-08-27 18:28CSTYesJJD/AMWUSGS908023.94 Good NONE
3282001-08-27 18:17CSTYesJJD/AMWUSGS947024.18 Good NONE
3272001-08-27 18:11CSTYesJJD/AMWUSGS904024.34 Good NONE
3262001-08-27 17:57CSTYesJJD/AMWUSGS780024.84 Good NONE
3252001-08-27 17:51CSTYesJJD/AMWUSGS588025.08 Good NONE
3242001-08-27 17:39CSTYesJJD/AMWUSGS367025.45 Good NONE
3232001-08-27 17:33CSTYesJJD/AMWUSGS219025.48 Good NONE
3222001-08-27 17:20CSTYesJJD/AMWUSGS197025.51 Good NONE
3162001-08-03 05:34CSTYesJJD/AMWUSGS573024.44 Good NONE
3152001-08-03 05:30CSTYesJJD/AMWUSGS603024.43 Good NONE
3142001-08-03 05:26CSTYesJJD/AMWUSGS606024.41 Good NONE
3132001-08-03 05:23CSTYesJJD/AMWUSGS608024.40 Good NONE
3122001-08-03 05:12CSTYesJJD/AMWUSGS574024.34 Good NONE
3112001-08-03 05:09CSTYesJJD/AMWUSGS611024.30 Good NONE
3092001-08-03 05:05CSTYesJJD/AMWUSGS576024.25 Good NONE
3082001-08-03 05:01CSTYesJJD/AMWUSGS555024.19 Good NONE
3072001-08-03 04:57CSTYesJJD/AMWUSGS590024.10 Good NONE
3062001-08-02 18:14CSTYesJJD/AMWUSGS1720021.92 Good NONE
3052001-08-02 18:11CSTYesJJD/AMWUSGS1520021.92 Good NONE
3042001-08-02 18:08CSTYesJJD/AMWUSGS1420021.91 Good NONE
3032001-08-02 18:05CSTYesJJD/AMWUSGS1490021.90 Good NONE
3022001-08-02 18:01CSTYesJJD/AMWUSGS1560021.90 Good NONE
3012001-08-02 17:58CSTYesJJD/AMWUSGS1560021.89 Good NONE
3002001-08-02 17:55CSTYesJJD/AMWUSGS1620021.90 Good NONE
2992001-08-02 17:51CSTYesJJD/AMWUSGS1480021.90 Good NONE
2982001-08-02 17:48CSTYesJJD/AMWUSGS1500021.90 Good NONE
2962001-08-02 17:37CSTYesJJD/AMWUSGS1590021.97 Good NONE
2952001-08-02 17:34CSTYesJJD/AMWUSGS1500022.00 Good NONE
2942001-08-02 17:30CSTYesJJD/AMWUSGS1520022.03 Good NONE
2932001-08-02 17:26CSTYesJJD/AMWUSGS1550022.04 Good NONE
2922001-08-02 17:24CSTYesJJD/AMWUSGS1570022.05 Good NONE
2912001-08-02 17:16CSTYesJJD/AMWUSGS1520022.06 Good NONE
2902001-08-02 17:13CSTYesJJD/AMWUSGS1580022.06 Good NONE
2892001-08-02 17:08CSTYesJJD/AMWUSGS1560022.06 Good NONE
2882001-08-02 17:05CSTYesJJD/AMWUSGS1530022.06 Good NONE
2872001-08-02 17:01CSTYesJJD/AMWUSGS1560022.06 Good NONE
2862001-08-02 16:58CSTYesJJD/AMWUSGS1540022.06 Good NONE
2842001-08-02 16:50CSTYesJJD/AMWUSGS1560022.06 Good NONE
2832001-08-02 16:46CSTYesJJD/AMWUSGS1560022.06 Good NONE
2812001-08-01 10:03CSTYesJJD/AMWUSGS233025.77 Good NONE
2802001-08-01 10:00CSTYesJJD/AMWUSGS210025.78 Good NONE
2792001-08-01 09:57CSTYesJJD/AMWUSGS187025.77 Good NONE
2782001-08-01 09:53CSTYesJJD/AMWUSGS179025.75 Good NONE
2772001-08-01 09:35CSTYesJJD/AMWUSGS256025.73 Good NONE
2762001-08-01 09:31CSTYesJJD/AMWUSGS219025.74 Good NONE
2742001-08-01 09:22CSTYesJJD/AMWUSGS258025.72 Good NONE
2732001-08-01 09:15CSTYesJJD/AMWUSGS242025.68 Good NONE
2722001-08-01 09:10CSTYesJJD/AMWUSGS175025.67 Good NONE
2712001-08-01 08:54CSTYesJJD/AMWUSGS181025.61 Good NONE
2702001-08-01 08:48CSTYesJJD/AMWUSGS220025.58 Good NONE
2692001-05-17 15:24CSTYesJJD/AMWUSGS198025.58 Good NONE
2682001-05-17 15:21CSTYesJJD/AMWUSGS185025.56 Good NONE
2672001-05-17 15:18CSTYesJJD/AMWUSGS176025.55 Good NONE
2662001-05-17 15:15CSTYesJJD/AMWUSGS188025.53 Good NONE
2652001-05-17 15:12CSTYesJJD/AMWUSGS190025.52 Good NONE
2642001-05-17 15:09CSTYesJJD/AMWUSGS208025.53 Good NONE
2632001-05-17 15:05CSTYesJJD/AMWUSGS187025.54 Good NONE
2622001-05-17 15:01CSTYesJJD/AMWUSGS140025.55 Good NONE
2612001-05-17 14:58CSTYesJJD/AMWUSGS203025.54 Good NONE
2602001-05-17 14:55CSTYesJJD/AMWUSGS196025.49 Good NONE
2592001-05-17 14:39CSTYesJJD/AMWUSGS296025.33 Good NONE
2582001-05-17 14:35CSTYesJJD/AMWUSGS319025.37 Good NONE
2562001-02-27 11:26CSTYesJJD/AMWUSGS435025.18 Good NONE
2552001-02-27 11:23CSTYesJJD/AMWUSGS307025.22 Good NONE
2542001-02-27 11:20CSTYesJJD/AMWUSGS178025.25 Good NONE
2522001-02-27 11:16CSTYesJJD/AMWUSGS183025.31 Good NONE
2512001-02-27 11:12CSTYesJJD/AMWUSGS234025.32 Good NONE
2502000-09-06 11:46CSTYesJJDUSGS379025.47 Good NONE
2492000-09-06 11:43CSTYesJJDUSGS364025.48 Good NONE
2482000-09-06 11:38CSTYesJJDUSGS287025.46 Good NONE
2472000-09-06 11:36CSTYesJJDUSGS263025.45 Good NONE
2462000-09-06 11:17CSTYesJJDUSGS309025.45 Good NONE
2452000-09-06 11:14CSTYesJJDUSGS364025.46 Good NONE
2442000-09-06 11:11CSTYesJJDUSGS470025.49 Good NONE
2432000-09-06 11:07CSTYesJJDUSGS462025.53 Good NONE
2422000-07-07 10:48CSTYesJJDUSGS465025.11 Good NONE
2412000-07-07 10:45CSTYesJJDUSGS402025.25 Good NONE
2402000-07-07 10:42CSTYesJJDUSGS372025.35 Good NONE
2392000-07-07 10:39CSTYesJJDUSGS358025.43 Good NONE
2382000-07-07 10:36CSTYesJJDUSGS332025.52 Good NONE
2372000-07-07 10:33CSTYesJJDUSGS337025.55 Good NONE
2362000-07-07 10:20CSTYesJJDUSGS359025.41 Good NONE
2352000-07-07 10:15CSTYesJJDUSGS341025.40 Good NONE
2342000-03-02 17:29CSTYesKAO/JJDUSGS115025.97 Fair NONE
2332000-03-02 17:26CSTYesKAO/JJDUSGS125025.96 Fair NONE
2262000-03-02 16:39CSTYesKAO/JJDUSGS119025.83 Good NONE
2252000-03-02 16:36CSTYesKAO/JJDUSGS156025.78 Good NONE
2242000-03-02 16:25CSTYesKAO/JJDUSGS107025.74 Good NONE
2232000-03-02 16:22CSTYesKAO/JJDUSGS66725.77 Good NONE
2222000-03-02 16:15CSTYesKAO/JJDUSGS159025.82 Good NONE
2212000-03-02 16:12CSTYesKAO/JJDUSGS115025.80 Good NONE
2202000-03-02 16:06CSTYesKAO/JJDUSGS79325.72 Good NONE
2192000-03-02 16:02CSTYesKAO/JJDUSGS117025.64 Good NONE
2182000-03-02 15:57CSTYesKAO/JJDUSGS182025.60 Good NONE
2172000-03-02 15:52CSTYesKAO/JJDUSGS206025.63 Good NONE
2162000-03-02 15:47CSTYesKAO/JJDUSGS184025.66 Good NONE
2142000-03-02 15:41CSTYesKAO/JJDUSGS276025.74 Good NONE
2132000-03-02 15:32CSTYesKAO/JJDUSGS106025.85 Good NONE
2322000-03-02 -- ----No
2312000-03-02 -- ----No
2302000-03-02 -- ----No
2292000-03-02 -- ----No
2282000-03-02 -- ----No
2272000-03-02 -- ----No
2121999-09-23 11:20CSTYesJJDUSGS166025.65 GoodClearNONE
2111999-09-23 11:12CSTYesJJDUSGS117025.65 GoodClearNONE
2101999-09-23 11:05CSTYesJJDUSGS160025.65 GoodClearNONE
2091999-09-23 11:05CSTYesJJDUSGS246025.64 GoodClearNONE
2081999-09-23 10:56CSTYesJJDUSGS272025.52 GoodClearNONE
2061999-09-23 10:53CSTYesJJDUSGS280025.22 GoodClearNONE
2051999-09-23 10:48CSTYesJJDUSGS373024.99 GoodClearNONE
2041999-09-23 10:39CSTYesJJDUSGS260025.61 GoodClearNONE
2031999-09-23 10:34CSTYesJJDUSGS147025.69 GoodClearNONE
2021999-09-23 10:29CSTYesJJDUSGS131025.76 GoodClearNONE
2011999-09-23 10:22CSTYesJJDUSGS212025.64 GoodClearNONE
2001999-08-10 09:23CSTNo
1991999-08-10 09:17CSTNo
1981999-04-11 12:52CSTYesJJDUSGS406024.83 GoodClearNONE
1971999-04-11 12:48CSTYesJJDUSGS339024.84 GoodClearNONE
1961999-04-11 12:44CSTYesJJDUSGS429024.83 GoodClearNONE
1951999-04-11 12:40CSTYesJJDUSGS474024.72 GoodClearNONE
1941999-04-11 12:35CSTYesJJDUSGS507024.74 GoodClearNONE
1931999-04-11 12:31CSTYesJJDUSGS436024.65 GoodClearNONE
1921999-04-11 12:23CSTYesJJDUSGS553024.42 GoodClearNONE
1911999-04-11 12:13CSTYesJJDUSGS412024.86 GoodClearNONE
1901999-04-11 12:07CSTYesJJDUSGS359024.86 GoodClearNONE
1891999-04-11 12:03CSTYesJJDUSGS423024.80 GoodClearNONE
1871998-11-06 10:34CSTYesjdUSGS219025.51 Unspecified NONE
1861998-11-06 10:32CSTYesjdUSGS203025.45 Unspecified NONE
1851998-11-06 10:29CSTYesjdUSGS157025.50 Unspecified NONE
1841998-11-06 10:26CSTYesjdUSGS106025.46 Unspecified NONE
1831998-11-06 10:22CSTYesjdUSGS138025.40 Unspecified NONE
1821998-11-06 10:19CSTYesjdUSGS207025.42 Unspecified NONE
1811998-11-06 10:15CSTYesjdUSGS224025.42 Unspecified NONE
1801998-11-06 10:11CSTYesjdUSGS131025.37 Unspecified NONE
1781998-07-02 11:08CSTYesjdUSGS388025.14 Unspecified NONE
1771998-07-02 11:05CSTYesjdUSGS346025.22 Unspecified NONE
1761998-07-02 11:03CSTYesjdUSGS338025.25 Unspecified NONE
1751998-07-02 11:00CSTYesjdUSGS341025.30 Unspecified NONE
1741998-07-02 10:58CSTYesjdUSGS296025.36 Unspecified NONE
1731998-07-02 10:54CSTYesjdUSGS313025.40 Unspecified NONE
1721998-07-02 10:48CSTYesjdUSGS289025.49 Unspecified NONE
1711998-07-02 10:48CSTYesjdUSGS269025.49 Unspecified NONE
1641998-03-16 11:31CSTYesjdUSGS187 Unspecified NONE
1611998-03-16 11:22CSTYesjdUSGS281 Unspecified NONE
1601998-03-16 11:19CSTYesjdUSGS-85.0 Unspecified NONE
1591998-03-16 11:16CSTYesjdUSGS347 Unspecified NONE
1561998-03-16 11:07CSTYesjdUSGS183 Unspecified NONE
1551998-03-16 11:04CSTYesjdUSGS582 Unspecified NONE
1541998-03-16 11:01CSTYesSES/JJDUSGS459 Unspecified NONE
1531998-03-16 10:57CSTYesSES/JJDUSGS64826.15 Good NONE
1521998-03-16 10:53CSTYesSES/JJDUSGS31726.10 Good NONE
1511997-11-03 12:36CSTYesJJD/SESUSGS192025.66 Unspecified NONE
1501997-11-03 12:32CSTYesJJD/SESUSGS207025.66 Unspecified NONE
1491997-11-03 12:29CSTYesJJD/SESUSGS192025.67 Unspecified NONE
1481997-11-03 12:23CSTYesJJD/SESUSGS206025.67 Unspecified NONE
1471997-11-03 12:20CSTYesJJD/SESUSGS202025.66 Unspecified NONE
1461997-11-03 12:17CSTYesJJD/SESUSGS190025.66 Unspecified NONE
1451997-11-03 12:13CSTYesJJD/SESUSGS201025.66 Unspecified NONE
1441997-11-03 12:09CSTYesJJD/SESUSGS183025.66 Unspecified NONE
1431997-11-03 12:04CSTYesJJD/SESUSGS200025.68 Unspecified NONE
1421997-11-03 12:01CSTYesJJD/SESUSGS210025.69 Unspecified NONE
1411997-11-03 11:57CSTYesJJD/SESUSGS209025.69 Unspecified NONE
1401997-11-03 11:55CSTYesJJD/SESUSGS222025.69 Unspecified NONE
1391997-07-02 10:22CSTYesJJD/SESUSGS384025.38 Unspecified NONE
1381997-07-02 10:17CSTYesJJD/SESUSGS396025.39 Unspecified NONE
1371997-07-02 10:11CSTYesJJD/SESUSGS422025.40 Unspecified NONE
1361997-07-02 10:06CSTYesJJD/SESUSGS401025.41 Unspecified NONE
1351997-07-02 10:02CSTYesJJD/ADRUSGS423025.42 Unspecified NONE
1341997-07-02 09:57CSTYesJJD/SESUSGS400025.43 Unspecified NONE
1331997-07-02 09:53CSTYesJJD/SESUSGS418025.43 Unspecified NONE
1321997-07-02 09:49CSTYesJJD/SESUSGS399025.42 Unspecified NONE
1311997-07-02 09:45CSTYesJJD/SESUSGS404025.41 Unspecified NONE
1301997-07-02 09:34CSTYesJJD/SESUSGS372025.41 Unspecified NONE
1291997-02-22 13:25CSTYesGPJ/ADRUSGS1520023.33 Unspecified NONE
1281997-02-22 13:21CSTYesGPJ/ADRUSGS1520023.34 Unspecified NONE
1271997-02-22 13:16CSTYesGPJ/ADRUSGS1520023.34 Unspecified NONE
1261997-02-22 13:12CSTYesGPJ/ADRUSGS1520023.34 Unspecified NONE
1251997-02-22 13:07CSTYesGPJ/ADRUSGS1470023.35 Unspecified NONE
1241997-02-22 13:04CSTYesGPJ/ADRUSGS1500023.36 Unspecified NONE
1231997-02-22 13:00CSTYesGPJ/ADRUSGS1410023.37 Unspecified NONE
1221997-02-22 12:57CSTYesGPJ/ADRUSGS1520023.37 Unspecified NONE
1211997-02-22 12:51CSTYesGPJ/ADRUSGS1440023.38 Unspecified NONE
1201997-02-06 12:20CSTYesJJD/KAOUSGS266025.66 Unspecified NONE
1191997-02-06 11:36CSTYesJJD/KAOUSGS258025.68 Unspecified NONE
1181997-02-06 11:32CSTYesJJD/KAOUSGS243025.62 Unspecified NONE
1171997-02-06 11:29CSTYesKAO/JJDUSGS242025.57 Unspecified NONE
1161997-02-06 11:24CSTYesKAO/JJDUSGS255025.58 Unspecified NONE
1151997-02-06 11:15CSTYeskao/jjdUSGS260025.60 Unspecified NONE
1141997-02-06 11:08CSTYesKAO/JJDUSGS250025.55 Unspecified NONE
1051995-10-24 11:00CSTYesKAO/GPJUSGS263025.32 Good NONE
1041995-10-24 10:54CSTYesKAO/GPJUSGS221025.33 Good NONE
1031995-10-24 10:44CSTYesKAO/GPJUSGS302025.40 Good NONE
1131995-10-24 10:33CSTYesKAO/GPJUSGS22.125.48 Good NONE
1021995-10-24 10:30CSTYesKAO/GPJUSGS301025.23 Good NONE
1121995-10-24 10:29CSTYesKAO/GPJUSGS200025.42 Good NONE
1011995-10-24 10:26CSTYesKAO/GPJUSGS436024.92 Good NONE
1111995-10-24 10:25CSTYesKAO/GPJUSGS158025.44 Good NONE
1101995-10-24 10:21CSTYesKAO/GPJUSGS162025.51 Good NONE
1091995-10-24 10:16CSTYesKAO/GPJUSGS220025.54 Good NONE
1081995-10-24 10:13CSTYesKAO/GPJUSGS214025.52 Good NONE
1071995-10-24 10:10CSTYesKAO/GPJUSGS146025.46 Good NONE
1061995-10-24 10:06CSTYesKAO/GPJUSGS104025.40 Good NONE
1001995-05-12 12:36CSTYesKAO/GPJUSGS394025.43 Good NONE
991995-05-12 12:23CSTYesKAO/GPJUSGS391025.45 Good NONE
981995-05-12 12:15CSTYesKAO/GPJUSGS353025.43 Good NONE
971995-05-12 11:57CSTYesKAO/GPJUSGS415025.36 Good NONE
961995-05-12 11:41CSTYesKAO/GPJUSGS394025.40 Good NONE
951995-05-12 11:34CSTYesKAO/GPJUSGS372025.43 Good NONE
941995-05-12 11:27CSTYesKAO/GPJUSGS382025.40 Good NONE
931995-05-12 11:20CSTYesKAO/SFBUSGS352025.33 Good NONE
921995-05-12 11:12CSTYesKAO/GPJUSGS434025.32 Good NONE
911995-05-12 10:14CSTYesKAO/GPJUSGS413025.47 Good NONE
901995-05-12 10:09CSTYesKAO/GPJUSGS400025.49 Good NONE
891995-05-12 10:00CSTYesKAO/GPJUSGS420025.44 Good NONE
881994-08-17 17:45CSTYesKAO/SFBUSGS809022.32 Good NONE
871994-08-17 17:39CSTYesKAO/SFBUSGS820022.12 Good NONE
861994-08-17 17:35CSTYesKAO/SFBUSGS841022.05 Good NONE
851994-08-17 17:30CSTYesKAO/SFBUSGS912022.05 Good NONE
841994-08-17 17:26CSTYesKAO/SFBUSGS382022.06 Good NONE
831994-08-17 17:22CSTYesKAO/SFBUSGS907022.04 Good NONE
821994-08-17 17:14CSTYesKAO/SFBUSGS934022.04 Good NONE
811994-08-17 17:10CSTYesKAO/SFBUSGS862022.06 Good NONE
801994-08-17 16:29CSTYesKAO/SFBUSGS871022.10 Good NONE
791994-08-17 16:20CSTYesKAO/SFBUSGS1020021.80 Good NONE
781994-08-17 16:17CSTYesKAO/SFBUSGS1090021.84 Good NONE
771993-10-12 11:55CSTYesDPM/SRTUSGS251025.54 GoodClearNONE
761993-07-22 15:16CSTYesKAO/ARSUSGS490025.15 GoodClearNONE
751992-12-16 12:03CSTYesDPM/JKLUSGS484025.15 GoodClearNONE
741992-06-26 11:38CSTYesJKL/SMRUSGS348025.12 FairClearNONE
731992-03-23 12:45CSTYesPDH/WSMUSGS262025.45 Good NONE
721992-01-13 12:34CSTYesJTS/WSMUSGS230025.50 Good NONE
711991-10-17 13:25CSTYesMLH/SMRUSGS259025.48 Fair NONE
701991-10-17 10:35CSTYesMLH/SMRUSGS270025.40 Fair NONE
691991-07-18 09:30CSTYesSES/SMRUSGS378025.25 Good NONE
681991-05-20 12:03CSTYesMLH/WSMUSGS237025.58 Good NONE
671991-04-15 13:30CSTYesPDH/TLWUSGS1690021.82 Good NONE
661991-03-11 12:16CSTYesPDH/ALBUSGS221025.60 Good NONE
651991-02-08 12:09CSTYesDPM/RBKUSGS256025.46 Good NONE
641990-12-04 12:22CSTYesSMR/GKBUSGS433025.38 Fair NONE
631990-11-14 14:10CSTYesSMR/JTSUSGS192025.57 Poor NONE
621990-08-22 12:44CSTYesDPM/SMRUSGS525025.27 Good NONE
611990-07-20 14:00CSTYesDPM/EEZUSGS1440020.67 Good NONE
601990-07-11 14:25CSTYesLJM/SRMUSGS531025.40 Good NONE
591990-07-11 12:00CSTYesLJM/SRMUSGS545025.58 Unspecified NONE
581990-04-24 10:45CSTYesDPM/SMRUSGS273025.68 Good NONE
571990-03-06 15:40CSTYesLJMUSGS270025.53 Unspecified NONE
561990-03-06 15:30CSTYesEEZUSGS227025.62 Fair NONE
551990-01-11 12:10CSTYesDPM/TLWUSGS199025.10 Unspecified NONE
541990-01-11 11:15CSTYesDPM/TLWUSGS207025.21 Unspecified NONE
531989-11-21 16:10CSTYesDPM/EEZUSGS289025.56 Good NONE
521989-11-21 15:15CSTYesDPM/EEZUSGS269025.60 Good NONE
511989-09-12 -- ----YesDPM/EEZUSGS601024.71-0.060.90Good NONE
501989-08-04 -- ----YesDPM/ADRUSGS404025.060.880.80Good NONE
491989-07-18 -- ----YesDPM/EEZUSGS548024.740.320.90Good NONE
481989-06-01 -- ----YesSMR/DPMUSGS1520021.08-0.060.90Good NONE
471989-06-01 -- ----YesDPMUSGS1440021.12-0.060.80Good NONE
461989-05-03 09:45CSTYesSMR/TLWUSGS207025.37-0.041.00Good NONE
451989-04-05 13:00CSTYesSMR/WSMUSGS256025.640.111.80Good NONE
441989-03-03 11:01CSTYesSMR/EEZUSGS225025.470.002.30Good NONE
431989-01-13 10:50CSTYesSMR/DPMUSGS258025.350.161.00Good NONE
421988-11-18 10:45CSTYesDPM/SMRUSGS451025.06 Unspecified NONE
411988-09-15 -- ----YesGGF/SMRUSGS523024.81-0.110.70Fair NONE
401988-07-27 -- ----YesGGF/SMRUSGS301025.16-0.190.70Fair NONE
391988-06-10 -- ----YesGF/SMRUSGS411024.950.040.80Good NONE
381988-02-12 -- ----YesGF/TLWUSGS208025.49-0.040.80Fair NONE
371987-12-30 -- ----YesGF/SMRUSGS384025.02-0.080.60Good NONE
361987-11-23 -- ----YesGF/SMRUSGS281024.880.180.80Fair NONE
351987-11-03 -- ----YesGF/TLWUSGS202025.130.180.80Fair NONE
341987-10-19 -- ----YesGF/SMRUSGS255025.25-0.010.50Fair NONE
331987-10-19 -- ----YesGF/SMRUSGS232025.18-0.150.60Fair NONE
321987-10-15 -- ----YesGF/SMRUSGS266025.10-0.040.60Good NONE
311987-10-15 -- ----YesGF/SMRUSGS246024.92-0.020.30Fair NONE
301987-10-15 -- ----YesGF/SMRUSGS293024.810.120.30Fair NONE
291987-10-09 -- ----YesGGF/WSMUSGS267024.860.090.80Good NONE
281987-08-17 -- ----YesGGF/WSMUSGS1470020.91-0.151.00Good NONE
271987-07-24 -- ----YesGGF/WSMUSGS397024.72-0.150.80Good NONE
261987-06-16 -- ----YesGGF/JJDUSGS730024.270.170.80Fair NONE
251987-05-15 -- ----YesGGF/JJDUSGS312025.130.100.80Good NONE
241987-04-07 -- ----YesGGF/JJDUSGS243025.020.110.90Fair NONE
231987-03-16 -- ----YesGGF/JJDUSGS195025.120.150.70Good NONE
221987-01-26 -- ----YesGGF/JJDUSGS285024.990.140.80Fair NONE
211986-12-12 -- ----YesGGF/WSMUSGS343024.990.240.50Fair NONE
201986-10-03 -- ----YesGGF/TLWUSGS1580021.790.241.70Good NONE
191986-09-25 -- ----YesGGF/JJDUSGS446024.851.22 Good NONE
181986-09-22 -- ----YesGGF/JJDUSGS440024.710.117.00Fair NONE
171986-08-07 -- ----YesGGF/JJDUSGS472024.750.110.60Fair NONE
161986-07-14 -- ----YesGGF/JJDUSGS305024.670.351.70Poor NONE
151986-07-01 -- ----YesGGF/TLWUSGS510024.320.171.40Fair NONE
141986-04-04 -- ----YesJJD/AWNUSGS188025.140.382.60Good NONE
131986-01-10 -- ----YesJJD/GGFUSGS136025.03-0.582.00Good NONE
121985-12-20 -- ----YesJJD/AWNUSGS292025.13-0.102.30Good NONE
111985-11-20 -- ----YesJJDUSGS851022.242.053.50Good NONE
101985-11-19 -- ----YesJJD/AWNUSGS666023.191.902.00Good NONE
91985-10-17 -- ----YesGGF/TLWUSGS255025.02-0.331.80Good NONE
81985-08-29 -- ----YesGGF/ADNUSGS346024.930.241.80Good NONE
71985-03-04 -- ----YesGGF/WBBUSGS1790022.43-0.031.50Good NONE
61985-03-04 -- ----YesGGF/WBBUSGS1770022.200.141.50Good NONE
51985-02-25 -- ----YesGGF/WBBUSGS577023.380.851.80Good NONE
41984-10-16 -- ----YesJKL/GPPUSGS767022.222.224.10Good NONE
31984-06-29 -- ----YesGGF/AWNUSGS340024.60-1.292.30Good NONE
21984-06-12 -- ----YesGGF/AWNUSGS371025.150.292.20Good NONE
11984-03-22 -- ----YesGGF/JKLUSGS640025.480.601.90Good NONE